createdAt,value
2023-02-14T00:01:26.679Z,9.70
2023-02-14T00:03:54.650Z,9.70
2023-02-14T00:06:22.423Z,9.90
2023-02-14T00:08:52.287Z,9.00
2023-02-14T00:11:20.754Z,8.90
2023-02-14T00:14:07.299Z,8.70
2023-02-14T00:16:35.063Z,9.20
2023-02-14T00:19:05.828Z,8.90
2023-02-14T00:21:36.112Z,9.80
2023-02-14T00:24:06.198Z,10.50
2023-02-14T00:26:34.391Z,10.20
2023-02-14T00:29:02.151Z,10.40
2023-02-14T00:31:30.036Z,10.10
2023-02-14T00:33:57.923Z,9.00
2023-02-14T00:36:25.843Z,10.00
2023-02-14T00:38:53.517Z,8.70
2023-02-14T00:41:21.619Z,9.90
2023-02-14T00:43:53.430Z,9.70
2023-02-14T00:46:22.436Z,9.40
2023-02-14T00:48:50.923Z,9.80
2023-02-14T00:51:19.481Z,9.70
2023-02-14T00:53:48.846Z,8.80
2023-02-14T00:56:18.209Z,8.30
2023-02-14T00:58:46.276Z,8.40
2023-02-14T01:01:15.397Z,9.90
2023-02-14T01:03:43.107Z,8.90
2023-02-14T01:06:10.918Z,9.50
2023-02-14T01:08:38.907Z,7.70
2023-02-14T01:11:10.976Z,9.60
2023-02-14T01:13:39.339Z,9.90
2023-02-14T01:16:09.892Z,8.70
2023-02-14T01:18:38.019Z,9.10
2023-02-14T01:21:20.267Z,9.10
2023-02-14T01:23:52.692Z,9.40
2023-02-14T01:26:21.618Z,9.30
2023-02-14T01:28:49.637Z,8.40
2023-02-14T01:31:23.657Z,9.00
2023-02-14T01:33:52.028Z,9.10
2023-02-14T01:36:23.867Z,8.00
2023-02-14T01:41:20.917Z,9.00
2023-02-14T01:43:51.467Z,9.00
2023-02-14T01:46:19.538Z,8.70
2023-02-14T01:48:47.480Z,8.30
2023-02-14T01:51:16.335Z,8.60
2023-02-14T01:53:44.046Z,9.20
2023-02-14T01:56:22.277Z,9.00
2023-02-14T01:58:52.591Z,8.70
2023-02-14T02:01:20.946Z,8.80
2023-02-14T02:03:53.937Z,8.80
2023-02-14T02:06:26.234Z,9.60
2023-02-14T02:11:31.125Z,8.20
2023-02-14T02:13:58.786Z,8.80
2023-02-14T02:16:38.578Z,9.40
2023-02-14T02:19:12.991Z,8.40
2023-02-14T02:22:05.799Z,9.40
2023-02-14T02:24:45.446Z,9.60
2023-02-14T02:27:29.339Z,11.10
2023-02-14T02:30:48.437Z,8.40
2023-02-14T02:33:54.688Z,8.40
2023-02-14T02:36:46.496Z,8.20
2023-02-14T02:39:53.640Z,9.00
2023-02-14T02:42:32.490Z,8.50
2023-02-14T02:46:03.121Z,8.60
2023-02-14T02:48:44.742Z,8.80
2023-02-14T02:51:39.046Z,9.20
2023-02-14T02:54:13.214Z,9.50
2023-02-14T02:56:53.361Z,8.30
2023-02-14T02:59:30.688Z,9.30
2023-02-14T03:02:18.653Z,8.90
2023-02-14T03:04:56.361Z,8.90
2023-02-14T03:07:37.189Z,9.70
2023-02-14T03:10:14.184Z,8.90
2023-02-14T03:13:00.468Z,9.00
2023-02-14T03:15:32.939Z,8.60
2023-02-14T03:18:00.737Z,9.00
2023-02-14T03:20:55.964Z,9.20
2023-02-14T03:23:29.238Z,8.50
2023-02-14T03:26:08.934Z,7.80
2023-02-14T03:28:48.110Z,8.60
2023-02-14T03:31:30.364Z,8.60
2023-02-14T03:36:58.328Z,8.20
2023-02-14T03:40:00.488Z,8.10
2023-02-14T03:42:35.534Z,8.80
2023-02-14T03:45:06.695Z,9.50
2023-02-14T03:47:36.606Z,9.50
2023-02-14T03:50:17.722Z,9.00
2023-02-14T03:52:47.243Z,11.30
2023-02-14T03:55:17.069Z,10.10
2023-02-14T03:57:59.721Z,9.00
2023-02-14T04:00:28.771Z,10.10
2023-02-14T04:03:01.075Z,9.30
2023-02-14T04:05:28.857Z,10.10
2023-02-14T04:07:58.512Z,9.40
2023-02-14T04:10:26.665Z,10.00
2023-02-14T04:12:54.568Z,10.30
2023-02-14T04:15:22.242Z,9.30
2023-02-14T04:18:08.695Z,9.10
2023-02-14T04:20:37.360Z,9.50
2023-02-14T04:23:05.061Z,8.40
2023-02-14T04:25:32.985Z,10.90
2023-02-14T04:28:00.753Z,9.90
2023-02-14T04:30:28.461Z,9.30
2023-02-14T04:32:56.309Z,9.90
2023-02-14T04:35:24.082Z,11.10
2023-02-14T04:37:52.819Z,10.10
2023-02-14T04:40:20.546Z,10.40
2023-02-14T04:42:48.486Z,10.10
2023-02-14T04:45:16.237Z,10.50
2023-02-14T04:47:44.029Z,9.10
2023-02-14T04:50:12.299Z,9.00
2023-02-14T04:52:40.617Z,9.80
2023-02-14T04:55:09.442Z,9.40
2023-02-14T04:57:37.351Z,10.20
2023-02-14T05:00:08.226Z,10.90
2023-02-14T05:02:37.289Z,11.30
2023-02-14T05:05:05.311Z,10.00
2023-02-14T05:07:33.016Z,10.50
2023-02-14T05:10:00.814Z,10.80
2023-02-14T05:12:29.039Z,10.00
2023-02-14T05:14:57.629Z,11.80
2023-02-14T05:17:25.472Z,10.50
2023-02-14T05:19:53.341Z,10.80
2023-02-14T05:22:21.039Z,10.80
2023-02-14T05:24:48.754Z,10.60
2023-02-14T05:27:16.444Z,9.00
2023-02-14T05:29:44.083Z,10.70
2023-02-14T05:32:11.793Z,10.50
2023-02-14T05:34:39.546Z,10.00
2023-02-14T05:37:07.221Z,9.70
2023-02-14T05:39:34.941Z,8.80
2023-02-14T05:42:03.224Z,9.50
2023-02-14T05:44:30.977Z,10.30
2023-02-14T05:46:58.713Z,9.60
2023-02-14T05:49:26.393Z,9.60
2023-02-14T05:51:54.053Z,9.60
2023-02-14T05:54:21.717Z,9.50
2023-02-14T05:56:49.572Z,11.30
2023-02-14T05:59:17.274Z,9.50
2023-02-14T06:01:44.946Z,9.20
2023-02-14T06:04:12.642Z,8.50
2023-02-14T06:06:40.376Z,8.60
2023-02-14T06:09:08.100Z,8.40
2023-02-14T06:11:35.995Z,7.20
2023-02-14T06:14:04.042Z,7.00
2023-02-14T06:16:32.042Z,7.80
2023-02-14T06:19:00.361Z,7.80
2023-02-14T06:21:28.294Z,7.30
2023-02-14T06:23:56.214Z,7.00
2023-02-14T06:26:27.900Z,7.40
2023-02-14T06:28:57.171Z,7.20
2023-02-14T06:31:25.831Z,7.90
2023-02-14T06:33:54.301Z,7.60
2023-02-14T06:36:22.923Z,7.80
2023-02-14T06:38:50.663Z,7.40
2023-02-14T06:41:18.616Z,7.40
2023-02-14T06:43:50.440Z,9.30
2023-02-14T06:46:19.045Z,8.40
2023-02-14T06:48:47.308Z,8.10
2023-02-14T06:51:15.028Z,7.60
2023-02-14T06:53:42.693Z,7.90
2023-02-14T07:04:18.873Z,8.20
2023-02-14T07:08:10.977Z,6.90
2023-02-14T07:11:26.983Z,7.90
2023-02-14T07:14:05.261Z,7.80
2023-02-14T07:16:39.544Z,7.80
2023-02-14T07:19:12.801Z,7.30
2023-02-14T07:25:29.983Z,8.50
2023-02-14T07:29:35.091Z,8.30
2023-02-14T07:36:36.305Z,10.40
2023-02-14T07:55:11.855Z,9.60
2023-02-14T07:58:56.153Z,8.90
2023-02-14T08:01:53.456Z,7.60
2023-02-14T08:04:25.512Z,8.50
2023-02-14T08:07:52.906Z,8.30
2023-02-14T08:10:39.841Z,7.80
2023-02-14T08:13:25.922Z,9.20
2023-02-14T08:16:34.036Z,7.70
2023-02-14T08:19:24.450Z,6.90
2023-02-14T08:23:04.916Z,7.00
2023-02-14T08:26:30.204Z,7.00
2023-02-14T08:33:38.975Z,7.70
2023-02-14T08:40:08.840Z,9.50
2023-02-14T08:46:46.263Z,8.30
2023-02-14T08:53:47.810Z,10.40
2023-02-14T08:56:38.491Z,8.80
2023-02-14T15:16:07.032Z,5.30
2023-02-14T18:53:45.036Z,10.40
2023-02-14T19:50:09.242Z,12.90
2023-02-14T19:52:37.214Z,12.90
2023-02-14T19:55:05.124Z,12.60
2023-02-14T19:57:32.842Z,12.90
2023-02-14T20:00:00.707Z,13.50
2023-02-14T20:02:28.487Z,13.20
2023-02-14T20:04:59.297Z,13.50
2023-02-14T20:07:26.951Z,13.00
2023-02-14T20:09:54.945Z,13.80
2023-02-14T20:12:22.613Z,15.10
2023-02-14T20:14:54.087Z,16.40
2023-02-14T20:17:21.847Z,14.90
2023-02-14T20:19:49.626Z,16.40
2023-02-14T20:22:17.344Z,17.50
2023-02-14T20:24:45.114Z,17.40
2023-02-14T20:27:12.817Z,15.70
2023-02-14T20:29:43.243Z,15.10
2023-02-14T20:32:13.102Z,15.70
2023-02-14T20:34:40.802Z,15.40
2023-02-14T20:37:11.239Z,16.40
2023-02-14T20:39:39.058Z,15.90
2023-02-14T20:42:08.547Z,14.00
2023-02-14T20:44:36.467Z,12.40
2023-02-14T20:47:05.538Z,12.90
2023-02-14T20:49:35.635Z,12.80
2023-02-14T20:52:03.899Z,12.60
2023-02-14T20:54:31.606Z,13.10
2023-02-14T20:56:59.448Z,12.90
2023-02-14T20:59:28.157Z,12.30
2023-02-14T21:01:57.459Z,12.20
2023-02-14T21:04:25.592Z,12.50
2023-02-14T21:06:53.448Z,11.20
2023-02-14T21:09:21.244Z,11.20
2023-02-14T21:11:50.246Z,12.00
2023-02-14T21:14:17.877Z,12.30
2023-02-14T21:16:45.569Z,11.80
2023-02-14T21:19:13.294Z,11.60
2023-02-14T21:21:41.183Z,11.70
2023-02-14T21:24:14.665Z,12.80
2023-02-14T21:26:42.847Z,12.20
2023-02-14T21:29:10.932Z,13.30
2023-02-14T21:31:39.399Z,13.00
2023-02-14T21:34:07.179Z,13.20
2023-02-14T21:36:35.932Z,13.90
2023-02-14T21:39:05.387Z,14.90
2023-02-14T21:41:33.891Z,15.50
2023-02-14T21:44:03.282Z,15.70
2023-02-14T21:46:33.081Z,14.20
2023-02-14T21:49:20.680Z,16.00
2023-02-14T21:51:48.688Z,16.50
2023-02-14T21:54:17.564Z,16.80
2023-02-14T21:56:45.972Z,17.20
2023-02-14T21:59:13.756Z,17.20
2023-02-14T22:01:42.216Z,18.70
2023-02-14T22:04:12.314Z,18.50
2023-02-14T22:06:41.656Z,16.70
2023-02-14T22:09:11.024Z,18.20
2023-02-14T22:11:38.862Z,18.50
2023-02-14T22:14:06.586Z,19.20
2023-02-14T22:16:36.789Z,19.10
2023-02-14T22:19:06.166Z,17.80
2023-02-14T22:21:34.700Z,19.80
2023-02-14T22:24:02.389Z,17.70
2023-02-14T22:26:34.592Z,21.20
2023-02-14T22:29:03.147Z,19.70
2023-02-14T22:31:38.829Z,20.00
2023-02-14T22:34:08.246Z,21.40
2023-02-14T22:36:36.005Z,21.20
2023-02-14T22:39:04.286Z,20.40
2023-02-14T22:41:37.492Z,19.50
2023-02-14T22:44:06.016Z,22.10
2023-02-14T22:46:36.598Z,21.50
2023-02-14T22:49:05.877Z,22.30
2023-02-14T22:51:35.708Z,19.80
2023-02-14T22:54:12.422Z,20.40
2023-02-14T22:56:51.511Z,21.40
2023-02-14T22:59:21.640Z,21.50
2023-02-14T23:01:50.951Z,21.10
2023-02-14T23:04:21.596Z,20.40
2023-02-14T23:06:49.444Z,19.60
2023-02-14T23:09:17.317Z,20.00
2023-02-14T23:11:46.399Z,21.30
2023-02-14T23:14:34.025Z,19.70
2023-02-14T23:17:14.428Z,19.80
2023-02-14T23:20:01.212Z,20.30
2023-02-14T23:22:40.178Z,20.30
2023-02-14T23:25:10.838Z,19.10
2023-02-14T23:27:44.526Z,19.90
2023-02-14T23:30:15.924Z,17.80
2023-02-14T23:32:44.195Z,19.20
2023-02-14T23:35:11.918Z,18.70
2023-02-14T23:37:39.835Z,18.00
2023-02-14T23:40:08.391Z,19.20
2023-02-14T23:42:36.300Z,16.90
2023-02-14T23:45:22.903Z,17.80
2023-02-14T23:47:50.610Z,18.10
2023-02-14T23:50:18.571Z,17.30
2023-02-14T23:52:46.238Z,16.80
2023-02-14T23:55:13.887Z,17.00
2023-02-14T23:57:41.695Z,16.80
